sensor_id;sensor_type;location;lat;lon;timestamp;P1;durP1;ratioP1;P2;durP2;ratioP2
28848;SDS011;15981;43.292;-2.888;2022-08-24T00:02:23;12.10;;;8.82;;
28848;SDS011;15981;43.292;-2.888;2022-08-24T00:04:49;11.23;;;8.80;;
28848;SDS011;15981;43.292;-2.888;2022-08-24T00:07:15;10.75;;;7.43;;
28848;SDS011;15981;43.292;-2.888;2022-08-24T00:09:41;11.60;;;7.55;;
28848;SDS011;15981;43.292;-2.888;2022-08-24T00:12:07;9.73;;;7.07;;
28848;SDS011;15981;43.292;-2.888;2022-08-24T00:14:33;9.57;;;5.85;;
28848;SDS011;15981;43.292;-2.888;2022-08-24T00:16:58;8.23;;;5.32;;
28848;SDS011;15981;43.292;-2.888;2022-08-24T00:19:24;7.93;;;5.43;;
28848;SDS011;15981;43.292;-2.888;2022-08-24T00:21:50;8.32;;;5.28;;
28848;SDS011;15981;43.292;-2.888;2022-08-24T00:24:17;7.95;;;5.20;;
28848;SDS011;15981;43.292;-2.888;2022-08-24T00:26:42;9.00;;;6.57;;
28848;SDS011;15981;43.292;-2.888;2022-08-24T00:29:11;10.30;;;7.80;;
28848;SDS011;15981;43.292;-2.888;2022-08-24T00:31:37;8.85;;;6.75;;
28848;SDS011;15981;43.292;-2.888;2022-08-24T00:34:03;8.65;;;6.25;;
28848;SDS011;15981;43.292;-2.888;2022-08-24T00:36:29;8.75;;;5.95;;
28848;SDS011;15981;43.292;-2.888;2022-08-24T00:38:54;9.65;;;5.65;;
28848;SDS011;15981;43.292;-2.888;2022-08-24T00:41:21;8.80;;;5.53;;
28848;SDS011;15981;43.292;-2.888;2022-08-24T00:43:57;7.63;;;4.90;;
28848;SDS011;15981;43.292;-2.888;2022-08-24T00:46:25;5.65;;;4.35;;
28848;SDS011;15981;43.292;-2.888;2022-08-24T00:48:52;8.43;;;5.00;;
28848;SDS011;15981;43.292;-2.888;2022-08-24T00:51:26;7.57;;;4.15;;
28848;SDS011;15981;43.292;-2.888;2022-08-24T00:53:57;7.72;;;4.60;;
28848;SDS011;15981;43.292;-2.888;2022-08-24T00:56:27;6.43;;;4.00;;
28848;SDS011;15981;43.292;-2.888;2022-08-24T00:58:58;7.97;;;4.03;;
28848;SDS011;15981;43.292;-2.888;2022-08-24T01:01:26;8.60;;;4.75;;
28848;SDS011;15981;43.292;-2.888;2022-08-24T01:03:52;10.20;;;4.88;;
28848;SDS011;15981;43.292;-2.888;2022-08-24T01:06:18;7.85;;;4.53;;
28848;SDS011;15981;43.292;-2.888;2022-08-24T01:08:44;7.45;;;4.75;;
28848;SDS011;15981;43.292;-2.888;2022-08-24T01:11:11;7.97;;;4.45;;
28848;SDS011;15981;43.292;-2.888;2022-08-24T01:13:38;12.60;;;8.43;;
28848;SDS011;15981;43.292;-2.888;2022-08-24T01:16:04;11.07;;;7.20;;
28848;SDS011;15981;43.292;-2.888;2022-08-24T01:18:31;8.35;;;4.55;;
28848;SDS011;15981;43.292;-2.888;2022-08-24T01:21:17;6.68;;;4.32;;
28848;SDS011;15981;43.292;-2.888;2022-08-24T01:23:45;6.70;;;4.20;;
28848;SDS011;15981;43.292;-2.888;2022-08-24T01:26:19;8.57;;;4.35;;
28848;SDS011;15981;43.292;-2.888;2022-08-24T01:28:46;9.48;;;4.43;;
28848;SDS011;15981;43.292;-2.888;2022-08-24T01:31:12;5.18;;;3.67;;
28848;SDS011;15981;43.292;-2.888;2022-08-24T01:33:38;6.45;;;3.67;;
28848;SDS011;15981;43.292;-2.888;2022-08-24T01:36:13;5.43;;;3.92;;
28848;SDS011;15981;43.292;-2.888;2022-08-24T01:38:43;5.88;;;3.80;;
28848;SDS011;15981;43.292;-2.888;2022-08-24T01:41:09;6.75;;;4.30;;
28848;SDS011;15981;43.292;-2.888;2022-08-24T01:43:35;7.05;;;4.10;;
28848;SDS011;15981;43.292;-2.888;2022-08-24T01:46:01;6.65;;;4.20;;
28848;SDS011;15981;43.292;-2.888;2022-08-24T01:48:27;7.32;;;4.32;;
28848;SDS011;15981;43.292;-2.888;2022-08-24T01:50:53;6.90;;;4.40;;
28848;SDS011;15981;43.292;-2.888;2022-08-24T01:53:19;8.75;;;4.75;;
28848;SDS011;15981;43.292;-2.888;2022-08-24T01:55:45;8.10;;;4.72;;
28848;SDS011;15981;43.292;-2.888;2022-08-24T01:58:11;8.13;;;4.82;;
28848;SDS011;15981;43.292;-2.888;2022-08-24T02:00:36;6.70;;;4.30;;
28848;SDS011;15981;43.292;-2.888;2022-08-24T02:03:02;7.97;;;5.43;;
28848;SDS011;15981;43.292;-2.888;2022-08-24T02:05:28;7.03;;;5.00;;
28848;SDS011;15981;43.292;-2.888;2022-08-24T02:07:54;7.50;;;4.47;;
28848;SDS011;15981;43.292;-2.888;2022-08-24T02:10:21;9.02;;;4.30;;
28848;SDS011;15981;43.292;-2.888;2022-08-24T02:12:48;6.50;;;4.13;;
28848;SDS011;15981;43.292;-2.888;2022-08-24T02:15:27;8.38;;;4.25;;
28848;SDS011;15981;43.292;-2.888;2022-08-24T02:17:53;7.28;;;4.32;;
28848;SDS011;15981;43.292;-2.888;2022-08-24T02:20:19;6.32;;;4.10;;
28848;SDS011;15981;43.292;-2.888;2022-08-24T02:22:49;8.52;;;5.22;;
28848;SDS011;15981;43.292;-2.888;2022-08-24T02:25:14;8.13;;;5.90;;
28848;SDS011;15981;43.292;-2.888;2022-08-24T02:27:41;9.25;;;6.10;;
28848;SDS011;15981;43.292;-2.888;2022-08-24T02:30:07;10.90;;;6.18;;
28848;SDS011;15981;43.292;-2.888;2022-08-24T02:32:33;10.50;;;6.05;;
28848;SDS011;15981;43.292;-2.888;2022-08-24T02:34:58;11.88;;;7.45;;
28848;SDS011;15981;43.292;-2.888;2022-08-24T02:37:24;9.48;;;6.78;;
28848;SDS011;15981;43.292;-2.888;2022-08-24T02:39:50;17.63;;;10.45;;
28848;SDS011;15981;43.292;-2.888;2022-08-24T02:42:17;25.17;;;15.07;;
28848;SDS011;15981;43.292;-2.888;2022-08-24T02:44:42;13.95;;;8.68;;
28848;SDS011;15981;43.292;-2.888;2022-08-24T02:47:08;9.10;;;6.18;;
28848;SDS011;15981;43.292;-2.888;2022-08-24T02:49:34;9.68;;;5.28;;
28848;SDS011;15981;43.292;-2.888;2022-08-24T02:52:00;9.25;;;5.20;;
28848;SDS011;15981;43.292;-2.888;2022-08-24T02:54:26;11.27;;;4.70;;
28848;SDS011;15981;43.292;-2.888;2022-08-24T02:56:52;8.15;;;4.25;;
28848;SDS011;15981;43.292;-2.888;2022-08-24T02:59:18;6.57;;;4.45;;
28848;SDS011;15981;43.292;-2.888;2022-08-24T03:01:44;7.45;;;5.00;;
28848;SDS011;15981;43.292;-2.888;2022-08-24T03:04:10;8.88;;;5.47;;
28848;SDS011;15981;43.292;-2.888;2022-08-24T03:06:36;7.07;;;5.28;;
28848;SDS011;15981;43.292;-2.888;2022-08-24T03:09:02;9.50;;;5.88;;
28848;SDS011;15981;43.292;-2.888;2022-08-24T03:11:28;8.65;;;5.85;;
28848;SDS011;15981;43.292;-2.888;2022-08-24T03:13:54;14.48;;;6.25;;
28848;SDS011;15981;43.292;-2.888;2022-08-24T03:16:20;10.25;;;6.20;;
28848;SDS011;15981;43.292;-2.888;2022-08-24T03:18:45;10.50;;;6.43;;
28848;SDS011;15981;43.292;-2.888;2022-08-24T03:21:11;10.00;;;6.53;;
28848;SDS011;15981;43.292;-2.888;2022-08-24T03:23:37;10.38;;;6.47;;
28848;SDS011;15981;43.292;-2.888;2022-08-24T03:26:03;9.25;;;5.47;;
28848;SDS011;15981;43.292;-2.888;2022-08-24T03:28:29;8.07;;;5.05;;
28848;SDS011;15981;43.292;-2.888;2022-08-24T03:30:55;8.38;;;5.00;;
28848;SDS011;15981;43.292;-2.888;2022-08-24T03:33:20;8.82;;;4.75;;
28848;SDS011;15981;43.292;-2.888;2022-08-24T03:35:46;8.40;;;5.32;;
28848;SDS011;15981;43.292;-2.888;2022-08-24T03:38:12;6.97;;;4.43;;
28848;SDS011;15981;43.292;-2.888;2022-08-24T03:40:38;6.95;;;4.43;;
28848;SDS011;15981;43.292;-2.888;2022-08-24T03:43:05;10.50;;;5.05;;
28848;SDS011;15981;43.292;-2.888;2022-08-24T03:45:30;8.95;;;5.38;;
28848;SDS011;15981;43.292;-2.888;2022-08-24T03:47:56;9.60;;;5.38;;
28848;SDS011;15981;43.292;-2.888;2022-08-24T03:50:22;8.95;;;5.20;;
28848;SDS011;15981;43.292;-2.888;2022-08-24T03:52:48;8.77;;;4.57;;
28848;SDS011;15981;43.292;-2.888;2022-08-24T03:55:14;6.97;;;4.40;;
28848;SDS011;15981;43.292;-2.888;2022-08-24T03:57:40;9.02;;;5.18;;
28848;SDS011;15981;43.292;-2.888;2022-08-24T04:00:07;9.88;;;5.40;;
28848;SDS011;15981;43.292;-2.888;2022-08-24T04:02:34;8.90;;;5.13;;
28848;SDS011;15981;43.292;-2.888;2022-08-24T04:05:00;5.60;;;4.47;;
28848;SDS011;15981;43.292;-2.888;2022-08-24T04:07:26;8.05;;;4.82;;
28848;SDS011;15981;43.292;-2.888;2022-08-24T04:09:52;10.15;;;5.05;;
28848;SDS011;15981;43.292;-2.888;2022-08-24T04:12:18;8.90;;;5.00;;
28848;SDS011;15981;43.292;-2.888;2022-08-24T04:14:43;10.40;;;6.65;;
28848;SDS011;15981;43.292;-2.888;2022-08-24T04:17:09;11.32;;;6.80;;
28848;SDS011;15981;43.292;-2.888;2022-08-24T04:19:36;9.05;;;5.15;;
28848;SDS011;15981;43.292;-2.888;2022-08-24T04:22:02;10.38;;;5.63;;
28848;SDS011;15981;43.292;-2.888;2022-08-24T04:24:28;7.30;;;4.88;;
28848;SDS011;15981;43.292;-2.888;2022-08-24T04:26:54;14.85;;;10.15;;
28848;SDS011;15981;43.292;-2.888;2022-08-24T04:29:20;15.65;;;9.35;;
28848;SDS011;15981;43.292;-2.888;2022-08-24T04:31:46;13.00;;;7.50;;
28848;SDS011;15981;43.292;-2.888;2022-08-24T04:34:12;9.30;;;6.43;;
28848;SDS011;15981;43.292;-2.888;2022-08-24T04:36:39;12.55;;;7.68;;
28848;SDS011;15981;43.292;-2.888;2022-08-24T04:39:05;11.02;;;7.82;;
28848;SDS011;15981;43.292;-2.888;2022-08-24T04:41:30;10.70;;;7.25;;
28848;SDS011;15981;43.292;-2.888;2022-08-24T04:43:56;9.07;;;6.05;;
28848;SDS011;15981;43.292;-2.888;2022-08-24T04:46:22;10.80;;;6.30;;
28848;SDS011;15981;43.292;-2.888;2022-08-24T04:48:48;10.95;;;6.57;;
28848;SDS011;15981;43.292;-2.888;2022-08-24T04:51:14;10.85;;;6.35;;
28848;SDS011;15981;43.292;-2.888;2022-08-24T04:53:42;8.98;;;6.07;;
28848;SDS011;15981;43.292;-2.888;2022-08-24T04:56:10;10.80;;;6.65;;
28848;SDS011;15981;43.292;-2.888;2022-08-24T04:58:36;12.60;;;6.78;;
28848;SDS011;15981;43.292;-2.888;2022-08-24T05:01:05;10.52;;;6.25;;
28848;SDS011;15981;43.292;-2.888;2022-08-24T05:03:31;13.80;;;9.20;;
28848;SDS011;15981;43.292;-2.888;2022-08-24T05:05:57;12.98;;;8.02;;
28848;SDS011;15981;43.292;-2.888;2022-08-24T05:08:23;12.25;;;8.02;;
28848;SDS011;15981;43.292;-2.888;2022-08-24T05:10:49;13.88;;;8.10;;
28848;SDS011;15981;43.292;-2.888;2022-08-24T05:13:16;13.85;;;9.00;;
28848;SDS011;15981;43.292;-2.888;2022-08-24T05:15:43;14.45;;;9.02;;
28848;SDS011;15981;43.292;-2.888;2022-08-24T05:18:10;14.30;;;8.60;;
28848;SDS011;15981;43.292;-2.888;2022-08-24T05:20:39;11.65;;;7.53;;
28848;SDS011;15981;43.292;-2.888;2022-08-24T05:23:05;11.98;;;7.57;;
28848;SDS011;15981;43.292;-2.888;2022-08-24T05:25:31;11.32;;;7.20;;
28848;SDS011;15981;43.292;-2.888;2022-08-24T05:27:57;11.80;;;7.55;;
28848;SDS011;15981;43.292;-2.888;2022-08-24T05:30:23;11.25;;;7.40;;
28848;SDS011;15981;43.292;-2.888;2022-08-24T05:32:48;12.32;;;8.13;;
28848;SDS011;15981;43.292;-2.888;2022-08-24T05:35:14;10.98;;;7.22;;
28848;SDS011;15981;43.292;-2.888;2022-08-24T05:37:40;11.18;;;6.68;;
28848;SDS011;15981;43.292;-2.888;2022-08-24T05:40:08;10.60;;;7.45;;
28848;SDS011;15981;43.292;-2.888;2022-08-24T05:42:36;11.00;;;7.22;;
28848;SDS011;15981;43.292;-2.888;2022-08-24T05:45:02;12.25;;;6.93;;
28848;SDS011;15981;43.292;-2.888;2022-08-24T05:47:28;10.82;;;7.13;;
28848;SDS011;15981;43.292;-2.888;2022-08-24T05:49:54;11.65;;;7.30;;
28848;SDS011;15981;43.292;-2.888;2022-08-24T05:52:20;10.40;;;6.80;;
28848;SDS011;15981;43.292;-2.888;2022-08-24T05:54:53;11.40;;;6.60;;
28848;SDS011;15981;43.292;-2.888;2022-08-24T05:57:19;9.20;;;6.35;;
28848;SDS011;15981;43.292;-2.888;2022-08-24T05:59:45;11.68;;;6.60;;
28848;SDS011;15981;43.292;-2.888;2022-08-24T06:02:10;10.75;;;6.93;;
28848;SDS011;15981;43.292;-2.888;2022-08-24T06:04:36;12.80;;;6.47;;
28848;SDS011;15981;43.292;-2.888;2022-08-24T06:07:03;9.10;;;6.28;;
28848;SDS011;15981;43.292;-2.888;2022-08-24T06:09:29;9.63;;;6.05;;
28848;SDS011;15981;43.292;-2.888;2022-08-24T06:11:54;8.63;;;6.03;;
28848;SDS011;15981;43.292;-2.888;2022-08-24T06:14:20;10.48;;;6.28;;
28848;SDS011;15981;43.292;-2.888;2022-08-24T06:16:46;17.20;;;7.80;;
28848;SDS011;15981;43.292;-2.888;2022-08-24T06:19:13;15.18;;;8.13;;
28848;SDS011;15981;43.292;-2.888;2022-08-24T06:21:39;14.13;;;7.35;;
28848;SDS011;15981;43.292;-2.888;2022-08-24T06:24:06;12.07;;;7.55;;
28848;SDS011;15981;43.292;-2.888;2022-08-24T06:26:32;16.25;;;8.70;;
28848;SDS011;15981;43.292;-2.888;2022-08-24T06:29:17;12.98;;;7.60;;
28848;SDS011;15981;43.292;-2.888;2022-08-24T06:31:43;14.10;;;7.63;;
28848;SDS011;15981;43.292;-2.888;2022-08-24T06:34:10;13.93;;;8.13;;
28848;SDS011;15981;43.292;-2.888;2022-08-24T06:36:37;12.65;;;7.80;;
28848;SDS011;15981;43.292;-2.888;2022-08-24T06:39:03;11.90;;;7.45;;
28848;SDS011;15981;43.292;-2.888;2022-08-24T06:41:29;11.63;;;7.57;;
28848;SDS011;15981;43.292;-2.888;2022-08-24T06:43:55;13.50;;;7.53;;
28848;SDS011;15981;43.292;-2.888;2022-08-24T06:46:22;9.63;;;6.70;;
28848;SDS011;15981;43.292;-2.888;2022-08-24T06:48:48;9.13;;;6.47;;
28848;SDS011;15981;43.292;-2.888;2022-08-24T06:51:15;8.85;;;6.60;;
28848;SDS011;15981;43.292;-2.888;2022-08-24T06:53:42;8.55;;;6.30;;
28848;SDS011;15981;43.292;-2.888;2022-08-24T06:56:08;9.23;;;6.30;;
28848;SDS011;15981;43.292;-2.888;2022-08-24T06:58:34;11.43;;;6.45;;
28848;SDS011;15981;43.292;-2.888;2022-08-24T07:01:20;9.73;;;6.28;;
28848;SDS011;15981;43.292;-2.888;2022-08-24T07:03:46;10.50;;;6.05;;
28848;SDS011;15981;43.292;-2.888;2022-08-24T07:06:12;7.97;;;4.90;;
28848;SDS011;15981;43.292;-2.888;2022-08-24T07:08:39;8.52;;;5.70;;
28848;SDS011;15981;43.292;-2.888;2022-08-24T07:11:06;9.88;;;6.15;;
28848;SDS011;15981;43.292;-2.888;2022-08-24T07:13:32;9.50;;;7.28;;
28848;SDS011;15981;43.292;-2.888;2022-08-24T07:15:58;10.45;;;6.88;;
28848;SDS011;15981;43.292;-2.888;2022-08-24T07:18:25;8.85;;;6.63;;
28848;SDS011;15981;43.292;-2.888;2022-08-24T07:20:51;10.02;;;6.65;;
28848;SDS011;15981;43.292;-2.888;2022-08-24T07:23:17;9.50;;;6.93;;
28848;SDS011;15981;43.292;-2.888;2022-08-24T07:25:44;9.57;;;6.75;;
28848;SDS011;15981;43.292;-2.888;2022-08-24T07:28:10;8.95;;;6.13;;
28848;SDS011;15981;43.292;-2.888;2022-08-24T07:30:36;7.95;;;5.88;;
28848;SDS011;15981;43.292;-2.888;2022-08-24T07:33:02;9.40;;;5.78;;
28848;SDS011;15981;43.292;-2.888;2022-08-24T07:35:29;8.70;;;5.72;;
28848;SDS011;15981;43.292;-2.888;2022-08-24T07:37:56;8.45;;;5.30;;
28848;SDS011;15981;43.292;-2.888;2022-08-24T07:40:22;11.27;;;5.20;;
28848;SDS011;15981;43.292;-2.888;2022-08-24T07:42:49;10.90;;;5.15;;
28848;SDS011;15981;43.292;-2.888;2022-08-24T07:45:15;7.10;;;5.05;;
28848;SDS011;15981;43.292;-2.888;2022-08-24T07:47:41;7.32;;;4.53;;
28848;SDS011;15981;43.292;-2.888;2022-08-24T07:50:08;6.93;;;5.00;;
28848;SDS011;15981;43.292;-2.888;2022-08-24T07:52:33;7.50;;;4.88;;
28848;SDS011;15981;43.292;-2.888;2022-08-24T07:54:59;7.75;;;4.65;;
28848;SDS011;15981;43.292;-2.888;2022-08-24T07:57:25;6.25;;;4.43;;
28848;SDS011;15981;43.292;-2.888;2022-08-24T07:59:51;7.97;;;5.10;;
28848;SDS011;15981;43.292;-2.888;2022-08-24T08:02:17;7.47;;;4.97;;
28848;SDS011;15981;43.292;-2.888;2022-08-24T08:04:43;7.32;;;5.25;;
28848;SDS011;15981;43.292;-2.888;2022-08-24T08:07:09;8.77;;;5.53;;
28848;SDS011;15981;43.292;-2.888;2022-08-24T08:09:37;8.40;;;4.97;;
28848;SDS011;15981;43.292;-2.888;2022-08-24T08:12:03;8.35;;;5.40;;
28848;SDS011;15981;43.292;-2.888;2022-08-24T08:14:30;7.15;;;5.15;;
28848;SDS011;15981;43.292;-2.888;2022-08-24T08:16:56;7.72;;;5.03;;
28848;SDS011;15981;43.292;-2.888;2022-08-24T08:19:22;7.13;;;5.07;;
28848;SDS011;15981;43.292;-2.888;2022-08-24T08:21:48;7.53;;;5.32;;
28848;SDS011;15981;43.292;-2.888;2022-08-24T08:24:33;7.20;;;4.53;;
28848;SDS011;15981;43.292;-2.888;2022-08-24T08:26:59;8.55;;;4.40;;
28848;SDS011;15981;43.292;-2.888;2022-08-24T08:29:25;8.57;;;4.53;;
28848;SDS011;15981;43.292;-2.888;2022-08-24T08:31:52;7.45;;;4.55;;
28848;SDS011;15981;43.292;-2.888;2022-08-24T08:34:18;6.70;;;4.50;;
28848;SDS011;15981;43.292;-2.888;2022-08-24T08:36:44;8.30;;;4.68;;
28848;SDS011;15981;43.292;-2.888;2022-08-24T08:39:11;8.05;;;4.82;;
28848;SDS011;15981;43.292;-2.888;2022-08-24T08:51:47;6.22;;;4.05;;
28848;SDS011;15981;43.292;-2.888;2022-08-24T08:54:22;8.02;;;4.35;;
28848;SDS011;15981;43.292;-2.888;2022-08-24T08:59:50;8.50;;;4.55;;
28848;SDS011;15981;43.292;-2.888;2022-08-24T09:07:38;40.85;;;18.73;;
28848;SDS011;15981;43.292;-2.888;2022-08-24T09:20:54;5.65;;;4.07;;
28848;SDS011;15981;43.292;-2.888;2022-08-24T09:26:18;5.57;;;3.83;;
28848;SDS011;15981;43.292;-2.888;2022-08-24T09:28:55;5.38;;;3.30;;
28848;SDS011;15981;43.292;-2.888;2022-08-24T09:34:08;5.18;;;3.63;;
28848;SDS011;15981;43.292;-2.888;2022-08-24T09:39:07;8.57;;;4.97;;
28848;SDS011;15981;43.292;-2.888;2022-08-24T09:47:08;8.13;;;4.53;;
28848;SDS011;15981;43.292;-2.888;2022-08-24T10:07:35;4.82;;;3.70;;
28848;SDS011;15981;43.292;-2.888;2022-08-24T10:15:36;5.82;;;4.07;;
28848;SDS011;15981;43.292;-2.888;2022-08-24T10:23:31;6.40;;;3.65;;
28848;SDS011;15981;43.292;-2.888;2022-08-24T10:32:10;5.90;;;4.40;;
28848;SDS011;15981;43.292;-2.888;2022-08-24T10:39:16;6.80;;;4.47;;
28848;SDS011;15981;43.292;-2.888;2022-08-24T10:42:09;5.65;;;3.75;;
28848;SDS011;15981;43.292;-2.888;2022-08-24T10:47:52;6.03;;;3.30;;
28848;SDS011;15981;43.292;-2.888;2022-08-24T10:55:22;3.55;;;2.72;;
28848;SDS011;15981;43.292;-2.888;2022-08-24T10:57:55;4.00;;;3.22;;
28848;SDS011;15981;43.292;-2.888;2022-08-24T11:00:27;4.80;;;3.20;;
28848;SDS011;15981;43.292;-2.888;2022-08-24T11:03:07;4.25;;;3.00;;
28848;SDS011;15981;43.292;-2.888;2022-08-24T11:05:36;4.47;;;2.97;;
28848;SDS011;15981;43.292;-2.888;2022-08-24T11:08:04;9.45;;;3.30;;
28848;SDS011;15981;43.292;-2.888;2022-08-24T11:10:32;3.35;;;2.88;;
28848;SDS011;15981;43.292;-2.888;2022-08-24T11:15:53;5.13;;;3.15;;
28848;SDS011;15981;43.292;-2.888;2022-08-24T11:18:19;3.35;;;2.88;;
28848;SDS011;15981;43.292;-2.888;2022-08-24T11:20:46;4.35;;;3.20;;
28848;SDS011;15981;43.292;-2.888;2022-08-24T11:23:17;7.32;;;3.60;;
28848;SDS011;15981;43.292;-2.888;2022-08-24T11:25:51;3.72;;;3.17;;
28848;SDS011;15981;43.292;-2.888;2022-08-24T11:30:46;3.28;;;2.97;;
28848;SDS011;15981;43.292;-2.888;2022-08-24T11:33:31;4.45;;;2.83;;
28848;SDS011;15981;43.292;-2.888;2022-08-24T11:35:58;3.28;;;2.63;;
28848;SDS011;15981;43.292;-2.888;2022-08-24T11:38:27;4.35;;;2.47;;
28848;SDS011;15981;43.292;-2.888;2022-08-24T11:43:29;4.57;;;2.97;;
28848;SDS011;15981;43.292;-2.888;2022-08-24T11:51:26;3.90;;;2.67;;
28848;SDS011;15981;43.292;-2.888;2022-08-24T11:54:01;4.00;;;2.70;;
28848;SDS011;15981;43.292;-2.888;2022-08-24T11:56:40;3.55;;;2.90;;
28848;SDS011;15981;43.292;-2.888;2022-08-24T12:01:51;5.88;;;3.10;;
28848;SDS011;15981;43.292;-2.888;2022-08-24T12:06:55;3.50;;;2.78;;
28848;SDS011;15981;43.292;-2.888;2022-08-24T12:12:20;4.68;;;3.17;;
28848;SDS011;15981;43.292;-2.888;2022-08-24T12:14:49;5.15;;;3.10;;
28848;SDS011;15981;43.292;-2.888;2022-08-24T12:19:52;3.42;;;3.10;;
28848;SDS011;15981;43.292;-2.888;2022-08-24T12:22:19;4.72;;;3.10;;
28848;SDS011;15981;43.292;-2.888;2022-08-24T12:24:50;3.80;;;3.28;;
28848;SDS011;15981;43.292;-2.888;2022-08-24T12:27:27;3.88;;;3.10;;
28848;SDS011;15981;43.292;-2.888;2022-08-24T12:39:54;3.78;;;3.40;;
28848;SDS011;15981;43.292;-2.888;2022-08-24T12:42:57;4.43;;;3.53;;
28848;SDS011;15981;43.292;-2.888;2022-08-24T12:45:16;4.28;;;3.80;;
28848;SDS011;15981;43.292;-2.888;2022-08-24T12:47:49;5.38;;;3.13;;
28848;SDS011;15981;43.292;-2.888;2022-08-24T12:50:33;3.67;;;2.83;;
28848;SDS011;15981;43.292;-2.888;2022-08-24T12:58:04;5.57;;;3.30;;
28848;SDS011;15981;43.292;-2.888;2022-08-24T13:00:40;6.22;;;3.22;;
28848;SDS011;15981;43.292;-2.888;2022-08-24T13:03:07;4.60;;;3.47;;
28848;SDS011;15981;43.292;-2.888;2022-08-24T13:05:54;5.65;;;3.92;;
28848;SDS011;15981;43.292;-2.888;2022-08-24T13:08:31;5.20;;;4.00;;
28848;SDS011;15981;43.292;-2.888;2022-08-24T13:11:06;4.80;;;3.85;;
28848;SDS011;15981;43.292;-2.888;2022-08-24T13:13:44;5.50;;;3.67;;
28848;SDS011;15981;43.292;-2.888;2022-08-24T13:16:10;5.45;;;3.55;;
28848;SDS011;15981;43.292;-2.888;2022-08-24T13:18:47;4.35;;;3.30;;
28848;SDS011;15981;43.292;-2.888;2022-08-24T13:21:16;6.13;;;3.97;;
28848;SDS011;15981;43.292;-2.888;2022-08-24T13:26:42;3.95;;;3.13;;
28848;SDS011;15981;43.292;-2.888;2022-08-24T13:29:08;5.35;;;3.47;;
28848;SDS011;15981;43.292;-2.888;2022-08-24T13:31:34;4.05;;;3.35;;
28848;SDS011;15981;43.292;-2.888;2022-08-24T13:52:17;7.25;;;4.05;;
28848;SDS011;15981;43.292;-2.888;2022-08-24T13:55:04;7.20;;;3.42;;
28848;SDS011;15981;43.292;-2.888;2022-08-24T13:57:33;4.85;;;3.83;;
28848;SDS011;15981;43.292;-2.888;2022-08-24T14:02:50;5.60;;;3.40;;
28848;SDS011;15981;43.292;-2.888;2022-08-24T14:05:24;4.00;;;3.35;;
28848;SDS011;15981;43.292;-2.888;2022-08-24T14:08:39;4.25;;;3.80;;
28848;SDS011;15981;43.292;-2.888;2022-08-24T14:10:51;5.22;;;3.78;;
28848;SDS011;15981;43.292;-2.888;2022-08-24T14:19:40;7.50;;;4.55;;
28848;SDS011;15981;43.292;-2.888;2022-08-24T14:24:36;5.13;;;3.92;;
28848;SDS011;15981;43.292;-2.888;2022-08-24T14:27:05;5.85;;;4.22;;
28848;SDS011;15981;43.292;-2.888;2022-08-24T14:29:32;5.78;;;4.30;;
28848;SDS011;15981;43.292;-2.888;2022-08-24T14:34:34;4.90;;;4.15;;
28848;SDS011;15981;43.292;-2.888;2022-08-24T14:37:07;6.63;;;4.00;;
28848;SDS011;15981;43.292;-2.888;2022-08-24T14:39:53;4.55;;;3.85;;
28848;SDS011;15981;43.292;-2.888;2022-08-24T14:42:20;6.32;;;4.28;;
28848;SDS011;15981;43.292;-2.888;2022-08-24T14:47:36;5.60;;;4.20;;
28848;SDS011;15981;43.292;-2.888;2022-08-24T14:50:08;5.38;;;4.18;;
28848;SDS011;15981;43.292;-2.888;2022-08-24T14:52:43;4.93;;;4.30;;
28848;SDS011;15981;43.292;-2.888;2022-08-24T15:00:21;6.32;;;4.63;;
28848;SDS011;15981;43.292;-2.888;2022-08-24T15:07:52;5.20;;;4.60;;
28848;SDS011;15981;43.292;-2.888;2022-08-24T15:10:19;6.07;;;4.72;;
28848;SDS011;15981;43.292;-2.888;2022-08-24T15:12:57;6.38;;;5.03;;
28848;SDS011;15981;43.292;-2.888;2022-08-24T15:23:35;4.93;;;4.40;;
28848;SDS011;15981;43.292;-2.888;2022-08-24T15:26:09;5.43;;;4.65;;
28848;SDS011;15981;43.292;-2.888;2022-08-24T15:28:37;6.18;;;4.53;;
28848;SDS011;15981;43.292;-2.888;2022-08-24T15:31:12;5.68;;;4.80;;
28848;SDS011;15981;43.292;-2.888;2022-08-24T15:33:57;6.45;;;4.80;;
28848;SDS011;15981;43.292;-2.888;2022-08-24T15:36:24;6.32;;;4.50;;
28848;SDS011;15981;43.292;-2.888;2022-08-24T15:38:50;6.63;;;4.65;;
28848;SDS011;15981;43.292;-2.888;2022-08-24T15:41:35;5.00;;;4.38;;
28848;SDS011;15981;43.292;-2.888;2022-08-24T15:44:10;5.10;;;4.30;;
28848;SDS011;15981;43.292;-2.888;2022-08-24T15:46:39;5.13;;;4.28;;
28848;SDS011;15981;43.292;-2.888;2022-08-24T15:49:16;7.35;;;4.80;;
28848;SDS011;15981;43.292;-2.888;2022-08-24T15:51:54;6.50;;;4.90;;
28848;SDS011;15981;43.292;-2.888;2022-08-24T15:56:49;5.97;;;4.93;;
28848;SDS011;15981;43.292;-2.888;2022-08-24T15:59:29;8.40;;;5.70;;
28848;SDS011;15981;43.292;-2.888;2022-08-24T16:02:16;10.23;;;6.32;;
28848;SDS011;15981;43.292;-2.888;2022-08-24T16:07:29;10.30;;;6.95;;
28848;SDS011;15981;43.292;-2.888;2022-08-24T16:10:30;9.20;;;6.53;;
28848;SDS011;15981;43.292;-2.888;2022-08-24T16:12:47;9.73;;;7.20;;
28848;SDS011;15981;43.292;-2.888;2022-08-24T16:15:16;9.73;;;6.68;;
28848;SDS011;15981;43.292;-2.888;2022-08-24T16:17:50;14.50;;;6.78;;
28848;SDS011;15981;43.292;-2.888;2022-08-24T16:22:54;10.43;;;7.63;;
28848;SDS011;15981;43.292;-2.888;2022-08-24T16:25:29;10.38;;;7.10;;
28848;SDS011;15981;43.292;-2.888;2022-08-24T16:33:05;12.10;;;8.48;;
28848;SDS011;15981;43.292;-2.888;2022-08-24T16:35:31;10.00;;;8.48;;
28848;SDS011;15981;43.292;-2.888;2022-08-24T16:37:58;11.52;;;8.35;;
28848;SDS011;15981;43.292;-2.888;2022-08-24T16:40:23;14.50;;;9.20;;
28848;SDS011;15981;43.292;-2.888;2022-08-24T16:42:49;12.57;;;8.85;;
28848;SDS011;15981;43.292;-2.888;2022-08-24T16:45:17;9.90;;;7.72;;
28848;SDS011;15981;43.292;-2.888;2022-08-24T16:47:43;14.35;;;9.05;;
28848;SDS011;15981;43.292;-2.888;2022-08-24T16:50:12;13.23;;;8.98;;
28848;SDS011;15981;43.292;-2.888;2022-08-24T16:52:37;12.10;;;8.43;;
28848;SDS011;15981;43.292;-2.888;2022-08-24T16:55:04;13.13;;;9.30;;
28848;SDS011;15981;43.292;-2.888;2022-08-24T16:57:31;13.15;;;8.73;;
28848;SDS011;15981;43.292;-2.888;2022-08-24T17:00:00;13.07;;;9.15;;
28848;SDS011;15981;43.292;-2.888;2022-08-24T17:02:27;13.93;;;8.93;;
28848;SDS011;15981;43.292;-2.888;2022-08-24T17:04:53;11.35;;;8.32;;
28848;SDS011;15981;43.292;-2.888;2022-08-24T17:07:20;12.13;;;8.90;;
28848;SDS011;15981;43.292;-2.888;2022-08-24T17:09:46;14.98;;;9.27;;
28848;SDS011;15981;43.292;-2.888;2022-08-24T17:12:13;14.75;;;9.27;;
28848;SDS011;15981;43.292;-2.888;2022-08-24T17:14:39;11.93;;;9.15;;
28848;SDS011;15981;43.292;-2.888;2022-08-24T17:17:06;14.77;;;9.60;;
28848;SDS011;15981;43.292;-2.888;2022-08-24T17:19:32;13.00;;;9.55;;
28848;SDS011;15981;43.292;-2.888;2022-08-24T17:21:58;15.30;;;9.73;;
28848;SDS011;15981;43.292;-2.888;2022-08-24T17:24:23;10.98;;;9.05;;
28848;SDS011;15981;43.292;-2.888;2022-08-24T17:26:49;13.07;;;10.13;;
28848;SDS011;15981;43.292;-2.888;2022-08-24T17:29:17;16.08;;;11.02;;
28848;SDS011;15981;43.292;-2.888;2022-08-24T17:31:44;15.40;;;11.15;;
28848;SDS011;15981;43.292;-2.888;2022-08-24T17:34:10;15.20;;;11.10;;
28848;SDS011;15981;43.292;-2.888;2022-08-24T17:36:36;17.90;;;11.10;;
28848;SDS011;15981;43.292;-2.888;2022-08-24T17:39:03;17.17;;;11.75;;
28848;SDS011;15981;43.292;-2.888;2022-08-24T17:41:29;15.02;;;10.77;;
28848;SDS011;15981;43.292;-2.888;2022-08-24T17:43:55;16.88;;;11.52;;
28848;SDS011;15981;43.292;-2.888;2022-08-24T17:46:21;17.95;;;12.57;;
28848;SDS011;15981;43.292;-2.888;2022-08-24T17:48:47;18.75;;;12.07;;
28848;SDS011;15981;43.292;-2.888;2022-08-24T17:51:13;19.30;;;12.57;;
28848;SDS011;15981;43.292;-2.888;2022-08-24T17:53:39;18.35;;;12.23;;
28848;SDS011;15981;43.292;-2.888;2022-08-24T17:56:05;17.70;;;12.80;;